Pleasant Hill, Missouri
Current Conditions -  °F | °C
As of 2:53 PM on Saturday 22 Nov 2014 (Local Time) from KOJC Reporting Station
Broken Clouds Broken Clouds  
Wind Chill: 59°   Ceiling: 2100
Heat Index: 59°   Visibility: 10mi
Dew Point: 52°   Wind: 13mph
Humidity: 78%   Direction: 200°SSW
Pressure: 29.81"   Gusts: 22mph
Location:  38.79°N, 94.27°W
Report Text: KOJC 222053Z 20011G19KT 10SM BKN021 15/11 A2981 RMK AO2 PK WND 19026/2033 SLP091 T01500111 56029
Loading
Personal Weather Stations






























Interactive Weather Map New forecast layout! Learn more

10-Day Weather Forecast

Advertisements
Track Severe Weather on mobile